^^
Saratoga-Weather Station Historical Data
Daily Summary for January 13, 2018 Units:  Both    English   Metric
Daily Weekly Monthly Yearly Custom
  High: Low: Average:
Temperature: 58.6 °F /  14.8 °C 16.3 °F /  -8.7 °C 36 °F /  2.2 °C
Dew Point: 58.0 °F /  14.4 °C 8.5 °F /  -13.1 °C 30.3 °F /  -0.9 °C
Humidity: 98% 63% 80%
Wind Speed: 15.8mph /  25.4km/h - 5.7mph /  9.2km/h
Wind Gust: 28.8mph /  46.3km/h - -
Wind- - West
Pressure: 30.28 in /  1025.3 hPa 29.23 in /  989.7 hPa -
Precipitation: 0.20 in /  5.08 mm    
Historical Graphs
 
 
Tabular Data for January 13, 2018
Time Temperature Dew Point Pressure Wind Wind Speed Wind Gust Humidity Rainfall Rate (Hourly) solar
00:01 55.1 °F /  12.8 °C 54.3 °F /  12.4 °C 29.47in /  997.9hPa West 0.9mph /  1.4km/h 2.3mph /  3.7km/h 97% 0.03in /  0.76mm 0.0 W/m2
00:11 55.0 °F /  12.8 °C 54.2 °F /  12.3 °C 29.46in /  997.5hPa West 0.3mph /  0.5km/h 1.2mph /  1.9km/h 97% 0.04in /  1.02mm 0.0 W/m2
00:18 55.0 °F /  12.8 °C 54.2 °F /  12.3 °C 29.45in /  997.2hPa Calm     97% 0.03in /  0.76mm 0.0 W/m2
00:24 54.9 °F /  12.7 °C 54.1 °F /  12.3 °C 29.45in /  997.2hPa SSW 0.7mph /  1.1km/h 2.3mph /  3.7km/h 97% 0.04in /  1.02mm 0.0 W/m2
00:31 54.9 °F /  12.7 °C 54.1 °F /  12.3 °C 29.45in /  997.2hPa SSW 0.5mph /  0.8km/h 1.2mph /  1.9km/h 97% 0.04in /  1.02mm 0.0 W/m2
00:46 55.9 °F /  13.3 °C 55.3 °F /  12.9 °C 29.43in /  996.5hPa SSE 3.0mph /  4.8km/h 4.0mph /  6.4km/h 98% 0.04in /  1.02mm 0.0 W/m2
00:53 56.7 °F /  13.7 °C 56.1 °F /  13.4 °C 29.43in /  996.5hPa SW 3.7mph /  6km/h 9.2mph /  14.8km/h 98% 0.03in /  0.76mm 0.0 W/m2
01:03 57.1 °F /  13.9 °C 56.5 °F /  13.6 °C 29.42in /  996.2hPa SSW 4.5mph /  7.2km/h 6.0mph /  9.7km/h 98% 0.04in /  1.02mm 0.0 W/m2
01:20 57.8 °F /  14.3 °C 57.2 °F /  14 °C 29.42in /  996.2hPa SSE 3.5mph /  5.6km/h 10.0mph /  16.1km/h 98% 0.04in /  1.02mm 0.0 W/m2
01:27 58.5 °F /  14.7 °C 57.9 °F /  14.4 °C 29.42in /  996.2hPa SE 6.6mph /  10.6km/h 10.0mph /  16.1km/h 98% 0.03in /  0.76mm 0.0 W/m2
01:34 58.6 °F /  14.8 °C 58.0 °F /  14.4 °C 29.43in /  996.5hPa SW 9.1mph /  14.6km/h 13.8mph /  22.2km/h 98% 0.03in /  0.76mm 0.0 W/m2
01:43 58.6 °F /  14.8 °C 58.0 °F /  14.4 °C 29.42in /  996.2hPa SSW 4.9mph /  7.9km/h 6.9mph /  11.1km/h 98% 0.02in /  0.51mm 0.0 W/m2
02:01 58.4 °F /  14.7 °C 57.8 °F /  14.3 °C 29.42in /  996.2hPa SSW 5.3mph /  8.5km/h 11.5mph /  18.5km/h 98% 0.02in /  0.51mm 0.0 W/m2
02:13 58.2 °F /  14.6 °C 57.4 °F /  14.1 °C 29.42in /  996.2hPa SSE 4.9mph /  7.9km/h 6.9mph /  11.1km/h 97% 0.02in /  0.51mm 0.0 W/m2
02:27 58.2 °F /  14.6 °C 57.4 °F /  14.1 °C 29.41in /  995.8hPa SSE 5.1mph /  8.2km/h 7.0mph /  11.3km/h 97% 0.02in /  0.51mm 0.0 W/m2
02:35 58.2 °F /  14.6 °C 57.6 °F /  14.2 °C 29.40in /  995.5hPa SSE 8.0mph /  12.9km/h 9.0mph /  14.5km/h 98% 0.02in /  0.51mm 0.0 W/m2
02:52 58.0 °F /  14.4 °C 57.2 °F /  14 °C 29.38in /  994.8hPa SSE 3.8mph /  6.1km/h 8.1mph /  13km/h 97% 0.01in /  0.25mm 0.0 W/m2
02:58 58.0 °F /  14.4 °C 57.2 °F /  14 °C 29.38in /  994.8hPa SE 5.1mph /  8.2km/h 9.2mph /  14.8km/h 97% 0.01in /  0.25mm 0.0 W/m2
03:05 57.9 °F /  14.4 °C 57.1 °F /  13.9 °C 29.37in /  994.5hPa SE 3.5mph /  5.6km/h 4.0mph /  6.4km/h 97% 0.01in /  0.25mm 0.0 W/m2
03:12 58.0 °F /  14.4 °C 57.2 °F /  14 °C 29.35in /  993.8hPa SE 3.9mph /  6.3km/h 5.8mph /  9.3km/h 97% 0.01in /  0.25mm 0.0 W/m2
03:17 57.9 °F /  14.4 °C 57.1 °F /  13.9 °C 29.35in /  993.8hPa SSE 4.8mph /  7.7km/h 10.4mph /  16.7km/h 97% 0.02in /  0.51mm 0.0 W/m2
03:32 57.6 °F /  14.2 °C 56.8 °F /  13.8 °C 29.34in /  993.5hPa SSE 5.0mph /  8km/h 5.0mph /  8km/h 97% 0.01in /  0.25mm 0.0 W/m2
03:41 57.6 °F /  14.2 °C 56.8 °F /  13.8 °C 29.34in /  993.5hPa ESE 5.2mph /  8.4km/h 10.4mph /  16.7km/h 97% 0.01in /  0.25mm 0.0 W/m2
03:57 57.6 °F /  14.2 °C 56.8 °F /  13.8 °C 29.33in /  993.1hPa South 2.8mph /  4.5km/h 5.8mph /  9.3km/h 97% 0.01in /  0.25mm 0.0 W/m2
04:17 57.5 °F /  14.2 °C 56.7 °F /  13.7 °C 29.30in /  992.1hPa ESE 4.6mph /  7.4km/h 7.0mph /  11.3km/h 97% 0.01in /  0.25mm 0.0 W/m2
04:24 57.5 °F /  14.2 °C 56.7 °F /  13.7 °C 29.27in /  991.1hPa SE 2.5mph /  4km/h 7.0mph /  11.3km/h 97% 0.01in /  0.25mm 0.0 W/m2
04:31 57.4 °F /  14.1 °C 56.6 °F /  13.7 °C 29.29in /  991.8hPa ESE 7.7mph /  12.4km/h 9.2mph /  14.8km/h 97% 0.02in /  0.51mm 0.0 W/m2
04:36 57.3 °F /  14.1 °C 56.5 °F /  13.6 °C 29.29in /  991.8hPa SSE 7.0mph /  11.3km/h 10.0mph /  16.1km/h 97% 0.02in /  0.51mm 0.0 W/m2
04:45 57.4 °F /  14.1 °C 56.6 °F /  13.7 °C 29.27in /  991.1hPa South 4.0mph /  6.4km/h 6.9mph /  11.1km/h 97% 0.02in /  0.51mm 0.0 W/m2
04:51 57.5 °F /  14.2 °C 56.7 °F /  13.7 °C 29.24in /  990.1hPa SE 5.3mph /  8.5km/h 11.5mph /  18.5km/h 97% 0.03in /  0.76mm 0.0 W/m2
05:15 58.0 °F /  14.4 °C 57.4 °F /  14.1 °C 29.23in /  989.7hPa SE 10.3mph /  16.6km/h 13.8mph /  22.2km/h 98% 0.03in /  0.76mm 0.0 W/m2
05:22 58.2 °F /  14.6 °C 57.4 °F /  14.1 °C 29.23in /  989.7hPa SSE 7.5mph /  12.1km/h 11.5mph /  18.5km/h 97% 0.03in /  0.76mm 0.0 W/m2
05:43 58.3 °F /  14.6 °C 57.5 °F /  14.2 °C 29.25in /  990.4hPa South 15.8mph /  25.4km/h 20.7mph /  33.3km/h 97% 0.03in /  0.76mm 0.0 W/m2
05:52 57.9 °F /  14.4 °C 57.1 °F /  13.9 °C 29.25in /  990.4hPa SW 12.3mph /  19.8km/h 21.9mph /  35.2km/h 97% 0.02in /  0.51mm 0.0 W/m2
05:59 57.6 °F /  14.2 °C 56.8 °F /  13.8 °C 29.27in /  991.1hPa South 11.3mph /  18.2km/h 20.7mph /  33.3km/h 97% 0.02in /  0.51mm 0.0 W/m2
06:20 56.2 °F /  13.4 °C 55.1 °F /  12.8 °C 29.27in /  991.1hPa South 13.3mph /  21.4km/h 21.9mph /  35.2km/h 96% 0.01in /  0.25mm 0.0 W/m2
06:35 55.3 °F /  12.9 °C 54.2 °F /  12.3 °C 29.28in /  991.4hPa SE 11.7mph /  18.8km/h 23.0mph /  37km/h 96% 0.02in /  0.51mm 0.0 W/m2
06:51 54.5 °F /  12.5 °C 53.4 °F /  11.9 °C 29.30in /  992.1hPa South 15.5mph /  24.9km/h 26.5mph /  42.6km/h 96% 0.01in /  0.25mm 0.0 W/m2
06:59 54.2 °F /  12.3 °C 52.8 °F /  11.6 °C 29.30in /  992.1hPa SSE 11.8mph /  19km/h 28.8mph /  46.3km/h 95% 0.01in /  0.25mm 0.0 W/m2
07:07 53.9 °F /  12.2 °C 52.5 °F /  11.4 °C 29.30in /  992.1hPa SE 8.4mph /  13.5km/h 12.7mph /  20.4km/h 95% 0.01in /  0.25mm 0.0 W/m2
07:13 53.8 °F /  12.1 °C 52.4 °F /  11.3 °C 29.31in /  992.4hPa SW 6.9mph /  11.1km/h 12.7mph /  20.4km/h 95% 0.02in /  0.51mm 0.0 W/m2
07:22 53.4 °F /  11.9 °C 52.0 °F /  11.1 °C 29.32in /  992.8hPa SSW 8.4mph /  13.5km/h 14.0mph /  22.5km/h 95% 0.01in /  0.25mm 0.0 W/m2
07:27 53.3 °F /  11.8 °C 51.9 °F /  11.1 °C 29.33in /  993.1hPa SSE 10.1mph /  16.3km/h 16.1mph /  25.9km/h 95% 0.01in /  0.25mm 0.0 W/m2
07:32 53.1 °F /  11.7 °C 51.7 °F /  10.9 °C 29.34in /  993.5hPa SW 8.7mph /  14km/h 10.4mph /  16.7km/h 95% 0.01in /  0.25mm 0.0 W/m2
07:38 52.9 °F /  11.6 °C 51.5 °F /  10.8 °C 29.35in /  993.8hPa South 8.5mph /  13.7km/h 18.4mph /  29.6km/h 95% 0.01in /  0.25mm 0.0 W/m2
07:55 45.9 °F /  7.7 °C 43.4 °F /  6.3 °C 29.41in /  995.8hPa SW 11.1mph /  17.9km/h 12.7mph /  20.4km/h 91% 0.01in /  0.25mm 0.0 W/m2
08:02 43.8 °F /  6.6 °C 41.3 °F /  5.2 °C 29.43in /  996.5hPa WNW 4.2mph /  6.8km/h 9.2mph /  14.8km/h 91% 0.01in /  0.25mm 5.0 W/m2
08:10 41.9 °F /  5.5 °C 39.5 °F /  4.2 °C 29.45in /  997.2hPa West 3.5mph /  5.6km/h 11.5mph /  18.5km/h 91% 0.00in /  0mm 7.0 W/m2
08:16 41.4 °F /  5.2 °C 39.3 °F /  4.1 °C 29.46in /  997.5hPa WNW 3.1mph /  5km/h 5.8mph /  9.3km/h 92% 0.00in /  0mm 9.0 W/m2
08:33 38.9 °F /  3.8 °C 35.9 °F /  2.2 °C 29.50in /  998.9hPa West 5.1mph /  8.2km/h 12.0mph /  19.3km/h 89% 0.00in /  0mm 40.0 W/m2
08:38 37.5 °F /  3.1 °C 34.3 °F /  1.3 °C 29.51in /  999.2hPa NNW 6.6mph /  10.6km/h 12.7mph /  20.4km/h 88% 0.01in /  0.25mm 60.0 W/m2
08:46 36.6 °F /  2.6 °C 33.1 °F /  0.6 °C 29.54in /  1000.2hPa West 9.2mph /  14.8km/h 18.4mph /  29.6km/h 87% 0.01in /  0.25mm 63.0 W/m2
08:53 35.1 °F /  1.7 °C 30.8 °F /  -0.7 °C 29.55in /  1000.6hPa NNW 7.5mph /  12.1km/h 11.5mph /  18.5km/h 84% 0.01in /  0.25mm 84.0 W/m2
08:59 34.4 °F /  1.3 °C 30.1 °F /  -1.1 °C 29.56in /  1000.9hPa West 5.6mph /  9km/h 10.4mph /  16.7km/h 84% 0.01in /  0.25mm 62.0 W/m2
09:14 33.3 °F /  0.7 °C 28.4 °F /  -2 °C 29.59in /  1001.9hPa NW 8.5mph /  13.7km/h 19.6mph /  31.5km/h 82% 0.01in /  0.25mm 130.0 W/m2
09:21 33.2 °F /  0.7 °C 28.6 °F /  -1.9 °C 29.60in /  1002.3hPa WNW 4.6mph /  7.4km/h 12.7mph /  20.4km/h 83% 0.01in /  0.25mm 116.0 W/m2
09:27 33.2 °F /  0.7 °C 28.3 °F /  -2.1 °C 29.61in /  1002.6hPa NNW 6.1mph /  9.8km/h 10.4mph /  16.7km/h 82% 0.01in /  0.25mm 97.0 W/m2
09:37 32.6 °F /  0.3 °C 27.4 °F /  -2.6 °C 29.63in /  1003.3hPa NW 6.9mph /  11.1km/h 10.4mph /  16.7km/h 81% 0.01in /  0.25mm 125.0 W/m2
09:42 32.3 °F /  0.2 °C 27.1 °F /  -2.7 °C 29.63in /  1003.3hPa NNW 8.6mph /  13.8km/h 13.8mph /  22.2km/h 81% 0.00in /  0mm 135.0 W/m2
09:50 31.9 °F /  -0.1 °C 26.4 °F /  -3.1 °C 29.64in /  1003.6hPa NNW 4.4mph /  7.1km/h 6.9mph /  11.1km/h 80% 0.00in /  0mm 149.0 W/m2
10:00 32.2 °F /  0.1 °C 27.0 °F /  -2.8 °C 29.65in /  1003.9hPa NNW 2.8mph /  4.5km/h 10.4mph /  16.7km/h 81% 0.00in /  0mm 148.0 W/m2
10:14 32.2 °F /  0.1 °C 25.5 °F /  -3.6 °C 29.68in /  1005hPa NW 5.3mph /  8.5km/h 9.2mph /  14.8km/h 76% 0.00in /  0mm 262.0 W/m2
10:24 32.4 °F /  0.2 °C 25.4 °F /  -3.7 °C 29.69in /  1005.3hPa WNW 4.4mph /  7.1km/h 5.8mph /  9.3km/h 75% 0.00in /  0mm 302.0 W/m2
10:31 32.5 °F /  0.3 °C 24.5 °F /  -4.2 °C 29.70in /  1005.6hPa WNW 8.7mph /  14km/h 17.3mph /  27.8km/h 72% 0.01in /  0.25mm 185.0 W/m2
10:39 32.3 °F /  0.2 °C 24.6 °F /  -4.1 °C 29.70in /  1005.6hPa NW 7.0mph /  11.3km/h 10.0mph /  16.1km/h 73% 0.01in /  0.25mm 258.0 W/m2
10:56 32.3 °F /  0.2 °C 23.6 °F /  -4.7 °C 29.71in /  1006hPa NW 6.1mph /  9.8km/h 13.8mph /  22.2km/h 70% 0.01in /  0.25mm 232.0 W/m2
11:02 32.3 °F /  0.2 °C 24.3 °F /  -4.3 °C 29.72in /  1006.3hPa NW 6.6mph /  10.6km/h 10.4mph /  16.7km/h 72% 0.01in /  0.25mm 223.0 W/m2
11:11 32.1 °F /  0.1 °C 23.4 °F /  -4.8 °C 29.73in /  1006.7hPa WNW 7.4mph /  11.9km/h 11.5mph /  18.5km/h 70% 0.01in /  0.25mm 374.0 W/m2
11:22 31.8 °F /  -0.1 °C 23.1 °F /  -4.9 °C 29.73in /  1006.7hPa NW 6.3mph /  10.1km/h 10.4mph /  16.7km/h 70% 0.01in /  0.25mm 387.0 W/m2
11:28 31.9 °F /  -0.1 °C 23.6 °F /  -4.7 °C 29.73in /  1006.7hPa NW 4.7mph /  7.6km/h 10.0mph /  16.1km/h 71% 0.01in /  0.25mm 411.0 W/m2
11:34 32.0 °F /  0 °C 23.3 °F /  -4.8 °C 29.74in /  1007hPa NNW 7.2mph /  11.6km/h 10.0mph /  16.1km/h 70% 0.00in /  0mm 448.0 W/m2
11:40 31.9 °F /  -0.1 °C 23.2 °F /  -4.9 °C 29.74in /  1007hPa West 8.4mph /  13.5km/h 11.5mph /  18.5km/h 70% 0.00in /  0mm 452.0 W/m2
11:46 31.6 °F /  -0.2 °C 22.9 °F /  -5.1 °C 29.74in /  1007hPa WNW 4.0mph /  6.4km/h 13.8mph /  22.2km/h 70% 0.00in /  0mm 457.0 W/m2
11:55 31.7 °F /  -0.2 °C 22.7 °F /  -5.2 °C 29.74in /  1007hPa NW 8.8mph /  14.2km/h 13.8mph /  22.2km/h 69% 0.00in /  0mm 459.0 W/m2
12:10 31.4 °F /  -0.3 °C 22.1 °F /  -5.5 °C 29.75in /  1007.3hPa NW 3.9mph /  6.3km/h 10.4mph /  16.7km/h 68% 0.01in /  0.25mm 461.0 W/m2
12:18 31.4 °F /  -0.3 °C 22.7 °F /  -5.2 °C 29.75in /  1007.3hPa NW 5.7mph /  9.2km/h 8.1mph /  13km/h 70% 0.01in /  0.25mm 462.0 W/m2
12:47 32.1 °F /  0.1 °C 22.4 °F /  -5.3 °C 29.77in /  1008hPa NNW 6.2mph /  10km/h 10.4mph /  16.7km/h 67% 0.01in /  0.25mm 455.0 W/m2
12:59 31.9 °F /  -0.1 °C 22.2 °F /  -5.4 °C 29.77in /  1008hPa NNW 6.3mph /  10.1km/h 11.5mph /  18.5km/h 67% 0.01in /  0.25mm 450.0 W/m2
13:07 31.4 °F /  -0.3 °C 21.0 °F /  -6.1 °C 29.78in /  1008.4hPa WNW 6.6mph /  10.6km/h 19.6mph /  31.5km/h 65% 0.01in /  0.25mm 443.0 W/m2
13:13 30.9 °F /  -0.6 °C 20.9 °F /  -6.2 °C 29.78in /  1008.4hPa WSW 7.3mph /  11.7km/h 12.7mph /  20.4km/h 66% 0.00in /  0mm 439.0 W/m2
13:27 30.9 °F /  -0.6 °C 20.9 °F /  -6.2 °C 29.80in /  1009hPa West 3.5mph /  5.6km/h 6.0mph /  9.7km/h 66% 0.00in /  0mm 364.0 W/m2
13:35 30.0 °F /  -1.1 °C 19.7 °F /  -6.8 °C 29.81in /  1009.4hPa WSW 7.8mph /  12.6km/h 12.7mph /  20.4km/h 65% 0.00in /  0mm 355.0 W/m2
13:44 30.0 °F /  -1.1 °C 20.0 °F /  -6.7 °C 29.82in /  1009.7hPa NNW 7.0mph /  11.3km/h 11.5mph /  18.5km/h 66% 0.00in /  0mm 353.0 W/m2
14:11 30.7 °F /  -0.7 °C 20.3 °F /  -6.5 °C 29.84in /  1010.4hPa West 6.1mph /  9.8km/h 11.5mph /  18.5km/h 65% 0.00in /  0mm 251.0 W/m2
14:19 30.4 °F /  -0.9 °C 20.0 °F /  -6.7 °C 29.85in /  1010.7hPa NNW 4.1mph /  6.6km/h 10.4mph /  16.7km/h 65% 0.00in /  0mm 163.0 W/m2
14:34 31.0 °F /  -0.6 °C 20.2 °F /  -6.6 °C 29.87in /  1011.4hPa NW 3.8mph /  6.1km/h 8.1mph /  13km/h 64% 0.00in /  0mm 105.0 W/m2
14:41 30.9 °F /  -0.6 °C 19.8 °F /  -6.8 °C 29.88in /  1011.7hPa West 5.3mph /  8.5km/h 5.3mph /  8.5km/h 63% 0.00in /  0mm 56.0 W/m2
14:46 30.8 °F /  -0.7 °C 20.0 °F /  -6.7 °C 29.88in /  1011.7hPa WNW 3.9mph /  6.3km/h 9.0mph /  14.5km/h 64% 0.01in /  0.25mm 53.0 W/m2
14:51 30.4 °F /  -0.9 °C 19.7 °F /  -6.8 °C 29.89in /  1012.1hPa West 3.4mph /  5.5km/h 8.1mph /  13km/h 64% 0.01in /  0.25mm 91.0 W/m2
15:16 28.4 °F /  -2 °C 17.8 °F /  -7.9 °C 29.92in /  1013.1hPa West 8.3mph /  13.4km/h 11.5mph /  18.5km/h 64% 0.01in /  0.25mm 123.0 W/m2
15:22 28.3 °F /  -2.1 °C 18.0 °F /  -7.8 °C 29.92in /  1013.1hPa WSW 2.0mph /  3.2km/h 10.4mph /  16.7km/h 65% 0.01in /  0.25mm 109.0 W/m2
15:30 28.8 °F /  -1.8 °C 18.9 °F /  -7.3 °C 29.94in /  1013.8hPa NNW 3.8mph /  6.1km/h 9.2mph /  14.8km/h 66% 0.01in /  0.25mm 128.0 W/m2
15:46 28.1 °F /  -2.2 °C 17.8 °F /  -7.9 °C 29.95in /  1014.1hPa WNW 5.1mph /  8.2km/h 9.2mph /  14.8km/h 65% 0.00in /  0mm 90.0 W/m2
15:58 27.6 °F /  -2.4 °C 17.0 °F /  -8.3 °C 29.96in /  1014.4hPa WNW 10.7mph /  17.2km/h 16.1mph /  25.9km/h 64% 0.00in /  0mm 58.0 W/m2
16:07 26.9 °F /  -2.8 °C 16.7 °F /  -8.5 °C 29.96in /  1014.4hPa NW 7.6mph /  12.2km/h 11.5mph /  18.5km/h 65% 0.00in /  0mm 51.0 W/m2
16:20 26.2 °F /  -3.2 °C 16.4 °F /  -8.7 °C 29.99in /  1015.5hPa WNW 6.5mph /  10.5km/h 8.1mph /  13km/h 66% 0.00in /  0mm 23.0 W/m2
16:26 26.0 °F /  -3.3 °C 16.2 °F /  -8.8 °C 29.99in /  1015.5hPa WNW 5.6mph /  9km/h 11.5mph /  18.5km/h 66% 0.00in /  0mm 16.0 W/m2
16:34 25.3 °F /  -3.7 °C 15.5 °F /  -9.2 °C 29.99in /  1015.5hPa WNW 3.6mph /  5.8km/h 11.5mph /  18.5km/h 66% 0.00in /  0mm 9.0 W/m2
16:52 24.6 °F /  -4.1 °C 15.5 °F /  -9.2 °C 30.01in /  1016.1hPa NNW 6.7mph /  10.8km/h 11.5mph /  18.5km/h 68% 0.00in /  0mm 0.0 W/m2
16:58 24.4 °F /  -4.2 °C 15.3 °F /  -9.3 °C 30.02in /  1016.5hPa West 4.6mph /  7.4km/h 8.1mph /  13km/h 68% 0.00in /  0mm 0.0 W/m2
17:04 24.2 °F /  -4.3 °C 15.5 °F /  -9.2 °C 30.02in /  1016.5hPa WNW 5.9mph /  9.5km/h 11.5mph /  18.5km/h 69% 0.00in /  0mm 0.0 W/m2
17:10 24.0 °F /  -4.4 °C 15.3 °F /  -9.3 °C 30.03in /  1016.8hPa WNW 4.3mph /  6.9km/h 5.8mph /  9.3km/h 69% 0.01in /  0.25mm 0.0 W/m2
17:16 23.9 °F /  -4.5 °C 15.5 °F /  -9.2 °C 30.04in /  1017.2hPa NNW 4.1mph /  6.6km/h 5.0mph /  8km/h 70% 0.01in /  0.25mm 0.0 W/m2
17:28 23.5 °F /  -4.7 °C 14.8 °F /  -9.6 °C 30.05in /  1017.5hPa NNW 3.6mph /  5.8km/h 10.4mph /  16.7km/h 69% 0.01in /  0.25mm 0.0 W/m2
17:33 23.4 °F /  -4.8 °C 14.7 °F /  -9.6 °C 30.05in /  1017.5hPa NNW 8.7mph /  14km/h 11.5mph /  18.5km/h 69% 0.01in /  0.25mm 0.0 W/m2
17:38 23.3 °F /  -4.8 °C 15.0 °F /  -9.4 °C 30.05in /  1017.5hPa WNW 6.9mph /  11.1km/h 13.0mph /  20.9km/h 70% 0.01in /  0.25mm 0.0 W/m2
17:44 23.2 °F /  -4.9 °C 14.9 °F /  -9.5 °C 30.06in /  1017.8hPa WNW 8.2mph /  13.2km/h 11.5mph /  18.5km/h 70% 0.01in /  0.25mm 0.0 W/m2
17:51 23.1 °F /  -4.9 °C 14.8 °F /  -9.6 °C 30.06in /  1017.8hPa NNW 3.4mph /  5.5km/h 4.6mph /  7.4km/h 70% 0.01in /  0.25mm 0.0 W/m2
18:09 22.7 °F /  -5.2 °C 14.4 °F /  -9.8 °C 30.08in /  1018.5hPa NNW 5.0mph /  8km/h 9.2mph /  14.8km/h 70% 0.00in /  0mm 0.0 W/m2
18:24 22.3 °F /  -5.4 °C 14.0 °F /  -10 °C 30.09in /  1018.8hPa NNW 5.7mph /  9.2km/h 9.2mph /  14.8km/h 70% 0.00in /  0mm 0.0 W/m2
18:31 22.1 °F /  -5.5 °C 13.8 °F /  -10.1 °C 30.10in /  1019.2hPa NNW 6.0mph /  9.7km/h 8.1mph /  13km/h 70% 0.00in /  0mm 0.0 W/m2
18:38 22.0 °F /  -5.6 °C 14.0 °F /  -10 °C 30.10in /  1019.2hPa NW 5.4mph /  8.7km/h 10.4mph /  16.7km/h 71% 0.00in /  0mm 0.0 W/m2
18:50 21.8 °F /  -5.7 °C 13.8 °F /  -10.1 °C 30.10in /  1019.2hPa NW 3.9mph /  6.3km/h 8.1mph /  13km/h 71% 0.00in /  0mm 0.0 W/m2
18:59 21.7 °F /  -5.7 °C 14.1 °F /  -9.9 °C 30.11in /  1019.5hPa North 3.0mph /  4.8km/h 6.9mph /  11.1km/h 72% 0.00in /  0mm 0.0 W/m2
19:18 21.5 °F /  -5.8 °C 13.9 °F /  -10.1 °C 30.12in /  1019.9hPa West 3.3mph /  5.3km/h 4.6mph /  7.4km/h 72% 0.00in /  0mm 0.0 W/m2
19:24 21.3 °F /  -5.9 °C 13.7 °F /  -10.2 °C 30.13in /  1020.2hPa NW 2.6mph /  4.2km/h 3.5mph /  5.6km/h 72% 0.00in /  0mm 0.0 W/m2
19:32 21.1 °F /  -6.1 °C 13.5 °F /  -10.3 °C 30.14in /  1020.5hPa NNW 3.4mph /  5.5km/h 5.8mph /  9.3km/h 72% 0.00in /  0mm 0.0 W/m2
19:55 20.5 °F /  -6.4 °C 12.9 °F /  -10.6 °C 30.15in /  1020.9hPa NNW 4.7mph /  7.6km/h 5.8mph /  9.3km/h 72% 0.00in /  0mm 0.0 W/m2
20:03 20.3 °F /  -6.5 °C 12.4 °F /  -10.9 °C 30.16in /  1021.2hPa North 4.4mph /  7.1km/h 8.1mph /  13km/h 71% 0.00in /  0mm 0.0 W/m2
20:08 20.3 °F /  -6.5 °C 12.4 °F /  -10.9 °C 30.16in /  1021.2hPa NW 3.3mph /  5.3km/h 4.6mph /  7.4km/h 71% 0.00in /  0mm 0.0 W/m2
20:13 20.1 °F /  -6.6 °C 12.2 °F /  -11 °C 30.16in /  1021.2hPa NNW 3.3mph /  5.3km/h 8.1mph /  13km/h 71% 0.00in /  0mm 0.0 W/m2
20:20 20.0 °F /  -6.7 °C 12.4 °F /  -10.9 °C 30.17in /  1021.6hPa NNW 3.5mph /  5.6km/h 4.6mph /  7.4km/h 72% 0.00in /  0mm 0.0 W/m2
20:27 19.8 °F /  -6.8 °C 12.2 °F /  -11 °C 30.17in /  1021.6hPa NW 4.2mph /  6.8km/h 8.1mph /  13km/h 72% 0.00in /  0mm 0.0 W/m2
20:34 19.6 °F /  -6.9 °C 11.7 °F /  -11.3 °C 30.17in /  1021.6hPa North 5.1mph /  8.2km/h 6.9mph /  11.1km/h 71% 0.00in /  0mm 0.0 W/m2
20:41 19.4 °F /  -7 °C 11.5 °F /  -11.4 °C 30.18in /  1021.9hPa NW 4.5mph /  7.2km/h 9.2mph /  14.8km/h 71% 0.00in /  0mm 0.0 W/m2
20:59 19.0 °F /  -7.2 °C 11.5 °F /  -11.4 °C 30.19in /  1022.2hPa NW 3.9mph /  6.3km/h 5.8mph /  9.3km/h 72% 0.00in /  0mm 0.0 W/m2
21:07 18.9 °F /  -7.3 °C 11.0 °F /  -11.7 °C 30.19in /  1022.2hPa NNW 4.4mph /  7.1km/h 6.9mph /  11.1km/h 71% 0.00in /  0mm 0.0 W/m2
21:19 18.6 °F /  -7.4 °C 10.8 °F /  -11.8 °C 30.20in /  1022.6hPa NNW 5.4mph /  8.7km/h 9.2mph /  14.8km/h 71% 0.00in /  0mm 0.0 W/m2
21:29 18.5 °F /  -7.5 °C 11.0 °F /  -11.7 °C 30.20in /  1022.6hPa West 3.2mph /  5.1km/h 4.0mph /  6.4km/h 72% 0.00in /  0mm 0.0 W/m2
21:38 18.4 °F /  -7.6 °C 10.9 °F /  -11.7 °C 30.21in /  1022.9hPa NNW 4.7mph /  7.6km/h 9.2mph /  14.8km/h 72% 0.00in /  0mm 0.0 W/m2
21:43 18.3 °F /  -7.6 °C 10.8 °F /  -11.8 °C 30.21in /  1022.9hPa North 5.0mph /  8km/h 5.0mph /  8km/h 72% 0.00in /  0mm 0.0 W/m2
21:55 18.0 °F /  -7.8 °C 10.2 °F /  -12.1 °C 30.22in /  1023.2hPa NNW 6.2mph /  10km/h 9.2mph /  14.8km/h 71% 0.00in /  0mm 0.0 W/m2
22:00 17.9 °F /  -7.8 °C 10.1 °F /  -12.2 °C 30.22in /  1023.2hPa North 3.1mph /  5km/h 5.0mph /  8km/h 71% 0.00in /  0mm 0.0 W/m2
22:05 17.9 °F /  -7.8 °C 10.4 °F /  -12 °C 30.23in /  1023.6hPa West 4.0mph /  6.4km/h 9.0mph /  14.5km/h 72% 0.00in /  0mm 0.0 W/m2
22:21 17.6 °F /  -8 °C 9.8 °F /  -12.3 °C 30.24in /  1023.9hPa NW 3.3mph /  5.3km/h 8.1mph /  13km/h 71% 0.00in /  0mm 0.0 W/m2
22:26 17.5 °F /  -8.1 °C 10.0 °F /  -12.2 °C 30.24in /  1023.9hPa NW 4.5mph /  7.2km/h 6.0mph /  9.7km/h 72% 0.00in /  0mm 0.0 W/m2
22:41 17.3 °F /  -8.2 °C 9.5 °F /  -12.5 °C 30.24in /  1023.9hPa WNW 4.7mph /  7.6km/h 9.2mph /  14.8km/h 71% 0.00in /  0mm 0.0 W/m2
22:46 17.1 °F /  -8.3 °C 9.3 °F /  -12.6 °C 30.24in /  1023.9hPa NNW 4.7mph /  7.6km/h 8.0mph /  12.9km/h 71% 0.00in /  0mm 0.0 W/m2
22:55 17.0 °F /  -8.3 °C 9.5 °F /  -12.5 °C 30.25in /  1024.3hPa West 5.1mph /  8.2km/h 8.0mph /  12.9km/h 72% 0.00in /  0mm 0.0 W/m2
23:08 16.8 °F /  -8.4 °C 9.3 °F /  -12.6 °C 30.26in /  1024.6hPa NNW 6.9mph /  11.1km/h 10.4mph /  16.7km/h 72% 0.00in /  0mm 0.0 W/m2
23:15 16.7 °F /  -8.5 °C 8.9 °F /  -12.8 °C 30.27in /  1024.9hPa West 3.8mph /  6.1km/h 6.0mph /  9.7km/h 71% 0.00in /  0mm 0.0 W/m2
23:22 16.6 °F /  -8.6 °C 8.8 °F /  -12.9 °C 30.27in /  1024.9hPa NNE 6.6mph /  10.6km/h 9.0mph /  14.5km/h 71% 0.00in /  0mm 0.0 W/m2
23:29 16.5 °F /  -8.6 °C 8.7 °F /  -12.9 °C 30.27in /  1024.9hPa NW 4.7mph /  7.6km/h 5.8mph /  9.3km/h 71% 0.00in /  0mm 0.0 W/m2
23:38 16.3 °F /  -8.7 °C 8.5 °F /  -13.1 °C 30.28in /  1025.3hPa NNW 4.2mph /  6.8km/h 8.1mph /  13km/h 71% 0.00in /  0mm 0.0 W/m2
Juneau County Weather
Compliments of Weather Underground - 2.25 mb